createdAt,value
2019-03-16T00:00:35.555Z,99.98
2019-03-16T00:01:35.545Z,99.56
2019-03-16T00:02:35.545Z,99.35
2019-03-16T00:03:35.526Z,99.66
2019-03-16T00:05:35.571Z,99.77
2019-03-16T00:06:35.486Z,99.99
2019-03-16T00:07:35.531Z,99.92
2019-03-16T00:08:35.475Z,99.99
2019-03-16T00:09:35.477Z,99.99
2019-03-16T00:10:35.447Z,99.98
2019-03-16T00:11:35.473Z,99.98
2019-03-16T00:12:35.430Z,99.99
2019-03-16T00:13:35.430Z,99.99
2019-03-16T00:14:35.427Z,99.99
2019-03-16T00:15:35.403Z,99.99
2019-03-16T00:16:35.412Z,99.99
2019-03-16T00:17:35.378Z,99.99
2019-03-16T00:18:35.372Z,99.98
2019-03-16T00:19:35.350Z,99.77
2019-03-16T00:20:35.334Z,99.98
2019-03-16T00:21:35.367Z,99.99
2019-03-16T00:22:35.317Z,99.77
2019-03-16T00:23:35.297Z,99.99
2019-03-16T00:24:35.506Z,99.99
2019-03-16T00:25:35.291Z,99.99
2019-03-16T00:26:35.307Z,99.99
2019-03-16T00:27:35.274Z,99.99
2019-03-16T00:28:35.254Z,99.99
2019-03-16T00:29:35.246Z,99.99
2019-03-16T00:30:35.234Z,99.99
2019-03-16T00:31:35.225Z,99.92
2019-03-16T00:32:35.338Z,99.99
2019-03-16T00:33:35.210Z,99.99
2019-03-16T00:34:35.188Z,99.99
2019-03-16T00:35:35.172Z,99.99
2019-03-16T00:36:35.208Z,99.99
2019-03-16T00:37:35.160Z,99.99
2019-03-16T00:38:35.156Z,99.99
2019-03-16T00:39:35.128Z,99.99
2019-03-16T00:40:35.126Z,99.98
2019-03-16T00:41:35.120Z,99.99
2019-03-16T00:42:35.129Z,99.99
2019-03-16T00:43:35.107Z,99.99
2019-03-16T00:44:35.079Z,99.99
2019-03-16T00:45:35.065Z,99.99
2019-03-16T00:46:35.107Z,99.99
2019-03-16T00:47:35.036Z,99.82
2019-03-16T00:48:35.048Z,99.82
2019-03-16T00:49:35.043Z,99.99
2019-03-16T00:50:35.010Z,99.96
2019-03-16T00:51:35.038Z,99.99
2019-03-16T00:52:34.996Z,99.99
2019-03-16T00:53:34.982Z,99.99
2019-03-16T00:54:34.986Z,99.40
2019-03-16T00:55:34.974Z,99.82
2019-03-16T00:56:34.956Z,99.51
2019-03-16T00:57:34.965Z,99.99
2019-03-16T00:58:34.934Z,99.99
2019-03-16T00:59:34.966Z,99.99
2019-03-16T01:00:34.921Z,99.99
2019-03-16T01:01:34.911Z,99.99
2019-03-16T01:02:34.890Z,99.99
2019-03-16T01:03:34.876Z,99.88
2019-03-16T01:04:34.856Z,99.92
2019-03-16T01:05:34.902Z,99.99
2019-03-16T01:06:34.851Z,99.99
2019-03-16T01:07:34.836Z,99.99
2019-03-16T01:08:34.838Z,99.99
2019-03-16T01:09:34.836Z,99.99
2019-03-16T01:10:34.806Z,99.99
2019-03-16T01:11:34.825Z,99.99
2019-03-16T01:12:34.789Z,99.99
2019-03-16T01:13:34.783Z,99.99
2019-03-16T01:14:34.772Z,99.99
2019-03-16T01:15:34.738Z,99.99
2019-03-16T01:16:34.791Z,99.99
2019-03-16T01:17:34.734Z,99.99
2019-03-16T01:18:34.703Z,99.99
2019-03-16T01:19:34.713Z,99.99
2019-03-16T01:20:34.707Z,99.92
2019-03-16T01:21:34.702Z,99.99
2019-03-16T01:22:34.719Z,99.76
2019-03-16T01:23:34.661Z,99.99
2019-03-16T01:24:34.658Z,99.61
2019-03-16T01:25:34.630Z,99.65
2019-03-16T01:26:34.639Z,99.96
2019-03-16T01:27:34.627Z,99.99
2019-03-16T01:28:34.657Z,99.99
2019-03-16T01:29:34.588Z,99.99
2019-03-16T01:30:34.575Z,99.99
2019-03-16T01:31:34.585Z,99.99
2019-03-16T01:32:40.510Z,99.99
2019-03-16T01:33:35.592Z,99.99
2019-03-16T01:34:34.539Z,99.92
2019-03-16T01:35:34.529Z,99.92
2019-03-16T01:36:34.557Z,99.99
2019-03-16T01:37:34.521Z,99.96
2019-03-16T01:38:34.491Z,99.99
2019-03-16T01:39:34.480Z,99.99
2019-03-16T01:40:34.474Z,99.99
2019-03-16T01:41:34.470Z,99.96
2019-03-16T01:42:34.501Z,99.99
2019-03-16T01:43:34.460Z,99.86
2019-03-16T01:44:34.422Z,99.99
2019-03-16T01:45:34.412Z,99.99
2019-03-16T01:46:34.424Z,99.99
2019-03-16T01:47:34.392Z,99.99
2019-03-16T01:48:34.430Z,99.99
2019-03-16T01:49:34.413Z,99.99
2019-03-16T01:50:34.371Z,99.96
2019-03-16T01:51:34.354Z,99.99
2019-03-16T01:52:34.341Z,99.99
2019-03-16T01:53:34.368Z,99.99
2019-03-16T01:54:34.317Z,99.99
2019-03-16T01:55:34.328Z,99.99
2019-03-16T01:56:34.335Z,99.99
2019-03-16T01:57:34.303Z,99.99
2019-03-16T01:58:34.331Z,99.99
2019-03-16T01:59:34.264Z,99.99
2019-03-16T02:00:34.275Z,99.99
2019-03-16T02:01:34.256Z,99.99
2019-03-16T02:02:34.264Z,99.99
2019-03-16T02:03:34.242Z,99.99
2019-03-16T02:04:34.277Z,99.99
2019-03-16T02:05:34.209Z,99.99
2019-03-16T02:06:34.205Z,99.99
2019-03-16T02:07:34.198Z,99.99
2019-03-16T02:08:34.194Z,99.99
2019-03-16T02:09:34.173Z,99.99
2019-03-16T02:10:34.179Z,99.99
2019-03-16T02:11:34.151Z,99.99
2019-03-16T02:12:34.121Z,99.99
2019-03-16T02:13:34.144Z,99.99
2019-03-16T02:14:34.112Z,99.99
2019-03-16T02:15:34.137Z,99.99
2019-03-16T02:16:34.104Z,99.99
2019-03-16T02:17:34.071Z,99.99
2019-03-16T02:18:34.115Z,99.99
2019-03-16T02:19:35.952Z,99.99
2019-03-16T02:20:34.053Z,99.99
2019-03-16T02:21:34.186Z,99.99
2019-03-16T02:22:34.038Z,99.99
2019-03-16T02:23:34.009Z,99.99
2019-03-16T02:24:34.035Z,99.99
2019-03-16T02:25:33.998Z,99.99
2019-03-16T02:26:33.990Z,99.99
2019-03-16T02:27:33.966Z,99.99
2019-03-16T02:28:33.965Z,99.99
2019-03-16T02:29:33.954Z,99.99
2019-03-16T02:30:33.972Z,99.99
2019-03-16T02:31:33.938Z,99.88
2019-03-16T02:32:33.913Z,99.99
2019-03-16T02:33:33.913Z,99.66
2019-03-16T02:34:33.903Z,99.92
2019-03-16T02:35:33.892Z,99.40
2019-03-16T02:36:33.904Z,99.92
2019-03-16T02:37:33.870Z,99.40
2019-03-16T02:38:33.860Z,99.99
2019-03-16T02:39:33.834Z,99.99
2019-03-16T02:40:33.825Z,99.99
2019-03-16T02:41:33.879Z,99.99
2019-03-16T02:42:33.805Z,99.99
2019-03-16T02:43:33.821Z,99.92
2019-03-16T02:44:33.791Z,99.40
2019-03-16T02:45:33.831Z,99.76
2019-03-16T02:46:33.804Z,99.99
2019-03-16T02:47:33.770Z,99.99
2019-03-16T02:48:33.742Z,99.44
2019-03-16T02:49:33.727Z,99.99
2019-03-16T02:50:33.714Z,99.99
2019-03-16T02:51:33.707Z,99.99
2019-03-16T02:52:33.748Z,99.99
2019-03-16T02:53:33.701Z,99.99
2019-03-16T02:54:33.679Z,99.99
2019-03-16T02:55:33.674Z,99.99
2019-03-16T02:56:33.671Z,99.99
2019-03-16T02:57:33.650Z,99.99
2019-03-16T02:58:33.662Z,99.99
2019-03-16T02:59:33.618Z,99.99
2019-03-16T03:00:33.744Z,99.99
2019-03-16T03:01:33.613Z,99.99
2019-03-16T03:02:33.593Z,99.99
2019-03-16T03:03:33.626Z,99.99
2019-03-16T03:04:33.569Z,99.99
2019-03-16T03:05:33.554Z,99.99
2019-03-16T03:06:33.577Z,99.99
2019-03-16T03:07:33.536Z,99.99
2019-03-16T03:08:33.528Z,99.99
2019-03-16T03:09:33.512Z,99.99
2019-03-16T03:10:33.502Z,99.99
2019-03-16T03:11:33.495Z,99.99
2019-03-16T03:12:33.514Z,99.99
2019-03-16T03:13:33.486Z,99.99
2019-03-16T03:14:33.496Z,99.99
2019-03-16T03:15:33.558Z,99.99
2019-03-16T03:16:33.440Z,99.99
2019-03-16T03:17:33.428Z,99.99
2019-03-16T03:18:33.457Z,99.99
2019-03-16T03:19:33.409Z,99.99
2019-03-16T03:20:33.396Z,99.99
2019-03-16T03:21:33.383Z,99.99
2019-03-16T03:22:33.374Z,99.99
2019-03-16T03:23:33.371Z,99.99
2019-03-16T03:24:33.386Z,99.99
2019-03-16T03:25:33.362Z,99.99
2019-03-16T03:26:33.338Z,99.99
2019-03-16T03:27:33.319Z,99.99
2019-03-16T03:28:33.303Z,99.99
2019-03-16T03:29:33.333Z,99.99
2019-03-16T03:30:33.321Z,99.99
2019-03-16T03:31:33.289Z,99.99
2019-03-16T03:32:33.277Z,99.99
2019-03-16T03:33:57.225Z,99.99
2019-03-16T03:34:34.284Z,99.99
2019-03-16T03:35:33.242Z,99.99
2019-03-16T03:36:33.228Z,99.99
2019-03-16T03:37:33.213Z,99.99
2019-03-16T03:38:33.206Z,99.99
2019-03-16T03:39:33.230Z,99.99
2019-03-16T03:40:33.198Z,99.99
2019-03-16T03:41:33.200Z,99.99
2019-03-16T03:42:33.158Z,99.99
2019-03-16T03:43:33.148Z,99.99
2019-03-16T03:44:33.154Z,99.99
2019-03-16T03:45:33.170Z,99.99
2019-03-16T03:46:33.125Z,99.99
2019-03-16T03:47:33.122Z,99.99
2019-03-16T03:48:33.100Z,99.99
2019-03-16T03:49:33.084Z,99.99
2019-03-16T03:50:33.093Z,99.99
2019-03-16T03:51:33.184Z,99.99
2019-03-16T03:52:33.050Z,99.99
2019-03-16T03:53:33.054Z,99.99
2019-03-16T03:54:33.027Z,99.99
2019-03-16T03:55:33.023Z,99.99
2019-03-16T03:56:33.009Z,99.99
2019-03-16T03:57:33.033Z,99.99
2019-03-16T03:58:32.984Z,99.99
2019-03-16T03:59:32.994Z,99.99
2019-03-16T04:00:32.973Z,99.99
2019-03-16T04:01:32.961Z,99.99
2019-03-16T04:02:32.956Z,99.99
2019-03-16T04:03:32.972Z,99.99
2019-03-16T04:04:32.926Z,99.99
2019-03-16T04:05:32.911Z,99.99
2019-03-16T04:06:32.902Z,99.99
2019-03-16T04:07:32.898Z,99.99
2019-03-16T04:08:32.896Z,99.99
2019-03-16T04:09:32.905Z,99.99
2019-03-16T04:10:32.859Z,99.99
2019-03-16T04:11:32.861Z,99.99
2019-03-16T04:12:32.840Z,99.99
2019-03-16T04:13:32.827Z,99.91
2019-03-16T04:14:32.822Z,99.70
2019-03-16T04:15:32.854Z,99.64
2019-03-16T04:16:32.803Z,99.70
2019-03-16T04:17:32.795Z,99.99
2019-03-16T04:18:32.782Z,99.99
2019-03-16T04:19:32.764Z,99.99
2019-03-16T04:20:32.795Z,99.64
2019-03-16T04:21:32.741Z,99.99
2019-03-16T04:22:32.737Z,99.99
2019-03-16T04:23:32.729Z,99.99
2019-03-16T04:24:32.725Z,99.99
2019-03-16T04:25:32.703Z,99.99
2019-03-16T04:26:32.741Z,99.99
2019-03-16T04:27:32.680Z,99.99
2019-03-16T04:28:32.725Z,99.99
2019-03-16T04:29:32.656Z,99.99
2019-03-16T04:30:32.650Z,99.99
2019-03-16T04:31:32.633Z,99.99
2019-03-16T04:32:32.628Z,99.99
2019-03-16T04:33:32.611Z,99.99
2019-03-16T04:34:32.636Z,99.99
2019-03-16T04:35:32.592Z,99.99
2019-03-16T04:36:32.614Z,99.99
2019-03-16T04:37:32.571Z,99.99
2019-03-16T04:38:32.570Z,99.99
2019-03-16T04:39:32.548Z,99.99
2019-03-16T04:40:32.534Z,99.99
2019-03-16T04:41:32.560Z,99.99
2019-03-16T04:42:32.522Z,99.99
2019-03-16T04:43:32.556Z,99.99
2019-03-16T04:44:32.546Z,99.99
2019-03-16T04:45:32.484Z,99.99
2019-03-16T04:46:32.490Z,99.99
2019-03-16T04:47:32.468Z,99.99
2019-03-16T04:48:32.454Z,99.99
2019-03-16T04:49:32.451Z,99.99
2019-03-16T04:50:32.473Z,99.99
2019-03-16T04:51:32.423Z,99.99
2019-03-16T04:52:32.418Z,99.99
2019-03-16T04:53:32.417Z,99.99
2019-03-16T04:54:32.394Z,99.99
2019-03-16T04:55:32.382Z,99.99
2019-03-16T04:56:32.430Z,99.99
2019-03-16T04:57:32.450Z,99.99
2019-03-16T04:58:32.358Z,99.99
2019-03-16T04:59:32.353Z,99.99
2019-03-16T05:00:32.349Z,99.99
2019-03-16T05:01:32.362Z,99.99
2019-03-16T05:02:32.316Z,99.99
2019-03-16T05:03:32.293Z,99.99
2019-03-16T05:04:41.895Z,99.99
2019-03-16T05:05:33.272Z,99.99
2019-03-16T05:06:32.315Z,99.99
2019-03-16T05:07:32.300Z,99.99
2019-03-16T05:08:32.251Z,99.99
2019-03-16T05:09:32.298Z,99.99
2019-03-16T05:10:32.228Z,99.99
2019-03-16T05:11:32.216Z,99.99
2019-03-16T05:12:32.202Z,99.99
2019-03-16T05:13:32.246Z,99.99
2019-03-16T05:14:32.241Z,99.99
2019-03-16T05:15:32.167Z,99.99
2019-03-16T05:16:32.161Z,99.99
2019-03-16T05:17:32.158Z,99.99
2019-03-16T05:18:32.135Z,99.99
2019-03-16T05:19:32.146Z,99.99
2019-03-16T05:20:32.156Z,99.99
2019-03-16T05:21:32.124Z,99.99
2019-03-16T05:22:32.089Z,99.99
2019-03-16T05:23:32.084Z,99.99
2019-03-16T05:24:32.100Z,99.99
2019-03-16T05:25:32.156Z,99.99
2019-03-16T05:26:32.058Z,99.99
2019-03-16T05:27:32.068Z,99.99
2019-03-16T05:28:32.036Z,99.99
2019-03-16T05:29:32.101Z,99.99
2019-03-16T05:30:32.028Z,99.99
2019-03-16T05:31:32.047Z,99.54
2019-03-16T05:32:32.018Z,99.99
2019-03-16T05:33:31.974Z,99.99
2019-03-16T05:34:31.962Z,99.99
2019-03-16T05:35:31.999Z,99.99
2019-03-16T05:36:31.969Z,99.74
2019-03-16T05:37:31.933Z,99.99
2019-03-16T05:38:31.924Z,99.99
2019-03-16T05:39:31.918Z,99.99
2019-03-16T05:40:31.903Z,99.91
2019-03-16T05:41:31.935Z,99.54
2019-03-16T05:42:31.902Z,99.70
2019-03-16T05:43:31.870Z,99.99
2019-03-16T05:44:31.853Z,99.99
2019-03-16T05:45:31.846Z,99.99
2019-03-16T05:46:31.839Z,99.99
2019-03-16T05:47:31.867Z,99.99
2019-03-16T05:48:31.815Z,99.99
2019-03-16T05:49:31.831Z,99.99
2019-03-16T05:50:31.805Z,99.59
2019-03-16T05:51:31.784Z,99.99
2019-03-16T05:52:31.773Z,99.99
2019-03-16T05:53:31.824Z,99.99
2019-03-16T05:54:31.754Z,99.99
2019-03-16T05:55:31.749Z,99.99
2019-03-16T05:56:31.734Z,99.99
2019-03-16T05:57:31.736Z,99.86
2019-03-16T05:58:31.713Z,99.99
2019-03-16T05:59:31.731Z,99.99
2019-03-16T06:00:31.687Z,99.71
2019-03-16T06:01:31.683Z,99.51
2019-03-16T06:02:31.661Z,99.55
2019-03-16T06:03:31.686Z,99.76
2019-03-16T06:04:31.652Z,99.92
2019-03-16T06:05:31.682Z,99.08
2019-03-16T06:06:31.625Z,99.96
2019-03-16T06:07:31.661Z,99.96
2019-03-16T06:08:31.660Z,99.65
2019-03-16T06:09:31.587Z,99.76
2019-03-16T06:10:31.584Z,99.55
2019-03-16T06:11:31.566Z,98.88
2019-03-16T06:12:31.566Z,98.98
2019-03-16T06:13:31.580Z,98.98
2019-03-16T06:14:31.546Z,98.77
2019-03-16T06:15:31.524Z,98.46
2019-03-16T06:16:31.546Z,98.46
2019-03-16T06:17:31.497Z,98.50
2019-03-16T06:18:31.496Z,98.50
2019-03-16T06:19:31.487Z,98.92
2019-03-16T06:20:31.481Z,98.98
2019-03-16T06:21:31.479Z,99.19
2019-03-16T06:22:31.491Z,98.67
2019-03-16T06:23:31.443Z,98.77
2019-03-16T06:24:31.428Z,98.04
2019-03-16T06:25:31.423Z,98.77
2019-03-16T06:26:31.411Z,98.14
2019-03-16T06:27:31.395Z,98.35
2019-03-16T06:28:31.439Z,98.67
2019-03-16T06:29:31.373Z,98.39
2019-03-16T06:30:31.385Z,98.19
2019-03-16T06:31:31.351Z,98.56
2019-03-16T06:32:31.342Z,98.50
2019-03-16T06:33:31.328Z,98.56
2019-03-16T06:34:31.482Z,98.67
2019-03-16T06:35:31.375Z,98.77
2019-03-16T06:36:31.304Z,99.04
2019-03-16T06:37:31.294Z,98.77
2019-03-16T06:38:31.290Z,98.46
2019-03-16T06:39:31.272Z,98.14
2019-03-16T06:40:31.302Z,98.67
2019-03-16T06:41:31.250Z,98.67
2019-03-16T06:42:31.235Z,98.14
2019-03-16T06:43:31.222Z,98.88
2019-03-16T06:44:31.221Z,98.04
2019-03-16T06:45:31.209Z,98.14
2019-03-16T06:46:31.319Z,98.35
2019-03-16T06:47:31.185Z,98.14
2019-03-16T06:48:31.175Z,98.35
2019-03-16T06:49:31.178Z,98.83
2019-03-16T06:50:31.150Z,98.62
2019-03-16T06:51:31.136Z,98.63
2019-03-16T06:52:31.180Z,96.31
2019-03-16T06:53:31.116Z,92.55
2019-03-16T06:54:31.110Z,87.92
2019-03-16T06:55:31.098Z,86.68
2019-03-16T06:56:31.082Z,84.66
2019-03-16T06:57:31.112Z,82.62
2019-03-16T06:58:31.064Z,81.58
2019-03-16T06:59:31.071Z,78.93
2019-03-16T07:00:31.039Z,72.54
2019-03-16T07:01:31.028Z,74.98
2019-03-16T07:02:31.018Z,77.07
2019-03-16T07:03:31.056Z,71.79
2019-03-16T07:04:30.993Z,71.75
2019-03-16T07:05:38.417Z,68.46
2019-03-16T07:06:31.969Z,71.14
2019-03-16T07:07:30.964Z,68.05
2019-03-16T07:08:30.951Z,67.85
2019-03-16T07:09:30.982Z,66.74
2019-03-16T07:10:30.930Z,68.24
2019-03-16T07:11:30.917Z,69.93
2019-03-16T07:12:30.922Z,68.39
2019-03-16T07:13:30.900Z,68.32
2019-03-16T07:14:30.948Z,68.29
2019-03-16T07:15:30.876Z,67.33
2019-03-16T07:16:30.867Z,68.53
2019-03-16T07:17:30.853Z,67.33
2019-03-16T07:18:30.855Z,67.48
2019-03-16T07:19:33.762Z,61.96
2019-03-16T07:20:30.857Z,64.36
2019-03-16T07:21:30.815Z,65.45
2019-03-16T07:22:30.798Z,64.57
2019-03-16T07:23:30.849Z,62.41
2019-03-16T07:24:30.821Z,62.62
2019-03-16T07:25:30.783Z,63.15
2019-03-16T07:26:30.754Z,61.69
2019-03-16T07:27:30.764Z,64.12
2019-03-16T07:28:30.732Z,64.06
2019-03-16T07:29:30.723Z,57.20
2019-03-16T07:30:30.834Z,58.53
2019-03-16T07:31:30.702Z,57.10
2019-03-16T07:32:30.691Z,58.36
2019-03-16T07:33:30.687Z,60.41
2019-03-16T07:34:30.668Z,59.92
2019-03-16T07:35:30.701Z,60.74
2019-03-16T07:36:30.648Z,58.25
2019-03-16T07:37:30.634Z,55.28
2019-03-16T07:38:30.662Z,57.33
2019-03-16T07:39:30.611Z,57.33
2019-03-16T07:40:30.703Z,59.92
2019-03-16T07:41:37.650Z,58.70
2019-03-16T07:42:30.603Z,54.80
2019-03-16T07:43:30.569Z,55.08
2019-03-16T07:44:30.596Z,56.43
2019-03-16T07:45:30.550Z,56.71
2019-03-16T07:46:31.756Z,58.83
2019-03-16T07:47:30.522Z,58.92
2019-03-16T07:48:30.519Z,58.83
2019-03-16T07:49:30.566Z,58.97
2019-03-16T07:50:30.508Z,57.36
2019-03-16T07:51:30.500Z,57.05
2019-03-16T07:52:30.474Z,56.74
2019-03-16T07:53:30.482Z,57.67
2019-03-16T07:54:31.401Z,57.43
2019-03-16T07:55:30.502Z,57.51
2019-03-16T07:57:40.562Z,57.66
2019-03-16T07:58:39.165Z,55.64
2019-03-16T07:59:39.885Z,53.54
2019-03-16T08:01:47.891Z,54.64
2019-03-16T08:02:47.847Z,54.51
2019-03-16T08:03:48.563Z,53.44
2019-03-16T08:04:47.852Z,54.16
2019-03-16T08:05:54.921Z,53.62
2019-03-16T08:06:47.843Z,53.47
2019-03-16T08:07:47.800Z,54.36
2019-03-16T08:08:50.598Z,55.13
2019-03-16T08:09:48.567Z,55.66
2019-03-16T08:12:53.266Z,55.21
2019-03-16T08:14:00.115Z,55.28
2019-03-16T08:16:32.431Z,55.79
2019-03-16T08:22:03.511Z,53.62
2019-03-16T08:23:10.102Z,52.55
2019-03-16T08:24:10.171Z,52.85
2019-03-16T08:25:08.232Z,52.91
2019-03-16T08:26:11.949Z,51.86
2019-03-16T08:29:34.135Z,55.82
2019-03-16T08:30:44.340Z,57.28
2019-03-16T08:34:10.800Z,59.14
2019-03-16T08:35:00.406Z,59.68
2019-03-16T08:36:18.384Z,57.15
2019-03-16T08:36:58.989Z,55.26
2019-03-16T08:40:42.626Z,54.16
2019-03-16T08:43:59.297Z,51.50
2019-03-16T08:45:05.337Z,51.48
2019-03-16T08:48:22.656Z,54.33
2019-03-16T08:52:27.250Z,52.04
2019-03-16T08:54:55.350Z,49.93
2019-03-16T08:55:55.386Z,49.93
2019-03-16T08:56:57.989Z,51.68
2019-03-16T08:57:43.419Z,50.97
2019-03-16T08:58:46.144Z,51.05
2019-03-16T09:00:46.706Z,50.19
2019-03-16T09:01:54.307Z,48.96
2019-03-16T09:04:11.429Z,51.89
2019-03-16T09:06:17.097Z,52.45
2019-03-16T09:07:31.115Z,52.96
2019-03-16T09:08:16.701Z,53.29
2019-03-16T09:09:39.147Z,52.98
2019-03-16T09:10:16.558Z,54.26
2019-03-16T09:11:17.104Z,53.44
2019-03-16T09:12:16.554Z,53.34
2019-03-16T09:13:16.541Z,51.89
2019-03-16T09:15:25.373Z,48.98
2019-03-16T09:16:25.264Z,50.27
2019-03-16T09:17:25.255Z,51.01
2019-03-16T09:18:46.302Z,51.70
2019-03-16T09:19:25.230Z,52.01
2019-03-16T09:20:25.230Z,50.48
2019-03-16T09:21:25.229Z,50.58
2019-03-16T09:22:25.198Z,51.89
2019-03-16T09:23:25.167Z,52.52
2019-03-16T09:24:25.141Z,53.21
2019-03-16T09:25:25.179Z,51.84
2019-03-16T09:26:25.210Z,50.51
2019-03-16T09:27:31.161Z,50.08
2019-03-16T09:28:34.148Z,49.79
2019-03-16T09:29:25.143Z,50.76
2019-03-16T09:30:25.219Z,51.19
2019-03-16T09:31:25.080Z,51.25
2019-03-16T09:32:25.086Z,50.27
2019-03-16T09:33:26.277Z,48.65
2019-03-16T09:34:25.023Z,48.14
2019-03-16T09:35:25.009Z,48.65
2019-03-16T09:36:25.011Z,48.42
2019-03-16T09:37:24.995Z,47.24
2019-03-16T09:38:25.018Z,48.16
2019-03-16T09:39:24.966Z,47.30
2019-03-16T09:40:24.954Z,47.08
2019-03-16T09:41:24.949Z,45.61
2019-03-16T09:42:24.935Z,49.50
2019-03-16T09:43:24.931Z,53.31
2019-03-16T09:44:24.949Z,51.76
2019-03-16T09:45:24.916Z,51.25
2019-03-16T09:46:24.898Z,49.29
2019-03-16T09:47:24.883Z,48.19
2019-03-16T09:48:24.881Z,45.28
2019-03-16T09:49:24.853Z,45.66
2019-03-16T09:50:24.884Z,45.21
2019-03-16T09:51:24.865Z,48.59
2019-03-16T09:52:24.881Z,48.05
2019-03-16T09:53:24.819Z,49.05
2019-03-16T09:54:24.803Z,51.58
2019-03-16T09:55:24.914Z,51.35
2019-03-16T09:56:24.783Z,51.13
2019-03-16T09:57:24.772Z,48.82
2019-03-16T09:58:31.225Z,46.84
2019-03-16T09:59:25.763Z,47.45
2019-03-16T10:00:24.739Z,46.83
2019-03-16T10:01:24.721Z,48.81
2019-03-16T10:02:24.718Z,50.97
2019-03-16T10:03:24.706Z,49.90
2019-03-16T10:04:24.727Z,49.52
2019-03-16T10:05:24.689Z,49.80
2019-03-16T10:06:24.667Z,48.49
2019-03-16T10:07:24.659Z,50.70
2019-03-16T10:08:24.653Z,54.87
2019-03-16T10:09:24.635Z,55.91
2019-03-16T10:10:24.666Z,55.51
2019-03-16T10:11:24.630Z,55.48
2019-03-16T10:12:24.610Z,55.89
2019-03-16T10:13:24.601Z,54.82
2019-03-16T10:14:24.625Z,55.07
2019-03-16T10:15:24.620Z,56.50
2019-03-16T10:16:24.597Z,56.17
2019-03-16T10:17:24.561Z,58.22
2019-03-16T10:18:24.538Z,58.29
2019-03-16T10:19:24.531Z,55.61
2019-03-16T10:20:24.539Z,53.02
2019-03-16T10:21:30.181Z,54.44
2019-03-16T10:22:24.503Z,54.39
2019-03-16T10:23:24.493Z,53.06
2019-03-16T10:24:24.484Z,52.50
2019-03-16T10:25:24.476Z,54.49
2019-03-16T10:26:24.624Z,54.59
2019-03-16T10:27:24.502Z,51.84
2019-03-16T10:28:24.432Z,52.30
2019-03-16T10:29:24.423Z,49.25
2019-03-16T10:30:24.425Z,46.94
2019-03-16T10:31:24.394Z,47.92
2019-03-16T10:32:24.388Z,49.60
2019-03-16T10:33:24.408Z,54.90
2019-03-16T10:34:24.372Z,56.56
2019-03-16T10:35:24.371Z,58.93
2019-03-16T10:36:24.339Z,57.34
2019-03-16T10:37:24.329Z,56.15
2019-03-16T10:38:24.316Z,54.46
2019-03-16T10:39:24.342Z,53.96
2019-03-16T10:40:24.299Z,54.16
2019-03-16T10:41:24.304Z,54.69
2019-03-16T10:42:24.271Z,55.22
2019-03-16T10:43:24.261Z,55.26
2019-03-16T10:44:24.251Z,56.99
2019-03-16T10:45:24.275Z,56.37
2019-03-16T10:46:24.228Z,55.30
2019-03-16T10:47:24.237Z,54.05
2019-03-16T10:48:24.211Z,54.46
2019-03-16T10:49:24.203Z,55.10
2019-03-16T10:50:24.188Z,54.28
2019-03-16T10:51:24.216Z,53.14
2019-03-16T10:52:24.159Z,53.14
2019-03-16T10:53:24.167Z,54.49
2019-03-16T10:54:24.140Z,56.32
2019-03-16T10:55:24.137Z,56.96
2019-03-16T10:56:24.128Z,56.84
2019-03-16T10:57:24.178Z,55.48
2019-03-16T10:58:24.173Z,55.58
2019-03-16T10:59:24.101Z,54.36
2019-03-16T11:00:24.072Z,54.24
2019-03-16T11:01:24.071Z,52.23
2019-03-16T11:02:24.052Z,49.76
2019-03-16T11:03:24.082Z,49.71
2019-03-16T11:04:24.031Z,52.48
2019-03-16T11:05:24.032Z,49.48
2019-03-16T11:06:24.024Z,47.92
2019-03-16T11:07:24.039Z,51.00
2019-03-16T11:08:23.986Z,51.69
2019-03-16T11:09:26.654Z,50.22
2019-03-16T11:10:23.966Z,49.91
2019-03-16T11:11:23.954Z,49.81
2019-03-16T11:12:23.961Z,48.80
2019-03-16T11:13:23.966Z,49.48
2019-03-16T11:14:23.922Z,50.70
2019-03-16T11:15:23.908Z,50.73
2019-03-16T11:16:23.901Z,52.30
2019-03-16T11:17:23.892Z,53.14
2019-03-16T11:18:23.889Z,53.04
2019-03-16T11:19:23.899Z,52.08
2019-03-16T11:20:23.949Z,50.07
2019-03-16T11:21:23.849Z,48.58
2019-03-16T11:22:23.843Z,46.79
2019-03-16T11:23:23.824Z,45.42
2019-03-16T11:24:23.829Z,45.42
2019-03-16T11:25:23.801Z,47.00
2019-03-16T11:26:23.832Z,48.67
2019-03-16T11:27:23.793Z,49.36
2019-03-16T11:28:23.775Z,48.52
2019-03-16T11:29:30.581Z,48.50
2019-03-16T11:30:23.747Z,47.06
2019-03-16T11:31:23.818Z,48.32
2019-03-16T11:32:23.723Z,49.16
2019-03-16T11:33:23.713Z,48.68
2019-03-16T11:34:23.708Z,46.99
2019-03-16T11:35:23.695Z,45.07
2019-03-16T11:36:23.673Z,47.77
2019-03-16T11:37:23.714Z,48.19
2019-03-16T11:38:23.711Z,50.70
2019-03-16T11:39:32.246Z,52.56
2019-03-16T11:40:23.641Z,52.68
2019-03-16T11:41:24.442Z,52.10
2019-03-16T11:42:23.654Z,52.96
2019-03-16T11:43:38.460Z,51.84
2019-03-16T11:44:23.606Z,49.99
2019-03-16T11:45:23.597Z,51.42
2019-03-16T11:46:23.570Z,51.01
2019-03-16T11:47:23.568Z,50.62
2019-03-16T11:48:29.126Z,52.43
2019-03-16T11:49:23.535Z,52.00
2019-03-16T11:50:23.523Z,51.67
2019-03-16T11:51:23.599Z,52.43
2019-03-16T11:52:23.501Z,52.40
2019-03-16T11:53:52.506Z,52.25
2019-03-16T11:54:23.489Z,52.71
2019-03-16T11:55:23.480Z,53.14
2019-03-16T11:56:23.456Z,54.13
2019-03-16T11:57:23.463Z,55.20
2019-03-16T11:58:23.650Z,55.94
2019-03-16T11:59:23.429Z,56.61
2019-03-16T12:00:23.416Z,57.76
2019-03-16T12:01:23.404Z,56.68
2019-03-16T12:02:32.095Z,56.79
2019-03-16T12:03:30.617Z,55.79
2019-03-16T12:05:33.443Z,56.33
2019-03-16T12:09:44.740Z,55.87
2019-03-16T12:10:34.685Z,54.46
2019-03-16T12:11:34.710Z,52.81
2019-03-16T12:13:37.960Z,51.84
2019-03-16T12:14:49.555Z,51.92
2019-03-16T12:17:40.133Z,50.26
2019-03-16T12:19:44.865Z,48.80
2019-03-16T12:21:52.589Z,47.53
2019-03-16T12:25:10.822Z,46.82
2019-03-16T12:27:41.127Z,48.64
2019-03-16T12:28:29.882Z,48.61
2019-03-16T12:30:35.447Z,47.11
2019-03-16T12:33:32.764Z,47.05
2019-03-16T12:34:10.491Z,47.06
2019-03-16T12:36:18.255Z,46.80
2019-03-16T12:37:20.882Z,47.83
2019-03-16T12:39:28.003Z,46.51
2019-03-16T12:40:34.239Z,45.09
2019-03-16T12:41:27.044Z,46.06
2019-03-16T12:44:22.866Z,49.00
2019-03-16T12:45:22.725Z,50.14
2019-03-16T12:46:22.672Z,49.51
2019-03-16T12:47:22.751Z,49.53
2019-03-16T12:48:22.610Z,50.70
2019-03-16T12:49:22.586Z,49.88
2019-03-16T12:50:22.629Z,48.96
2019-03-16T12:51:22.561Z,49.90
2019-03-16T12:52:22.552Z,50.67
2019-03-16T12:53:22.572Z,52.01
2019-03-16T12:54:22.530Z,51.86
2019-03-16T12:55:22.516Z,50.95
2019-03-16T12:56:22.549Z,51.64
2019-03-16T12:57:29.507Z,51.10
2019-03-16T12:58:23.510Z,50.98
2019-03-16T12:59:22.477Z,50.78
2019-03-16T13:00:22.466Z,50.37
2019-03-16T13:01:23.648Z,51.28
2019-03-16T13:02:22.489Z,51.59
2019-03-16T13:03:22.440Z,51.81
2019-03-16T13:04:22.434Z,53.09
2019-03-16T13:05:22.408Z,54.36
2019-03-16T13:06:22.396Z,54.87
2019-03-16T13:07:22.386Z,54.97
2019-03-16T13:08:22.409Z,54.33
2019-03-16T13:09:24.726Z,54.46
2019-03-16T13:10:29.506Z,54.87
2019-03-16T13:11:22.413Z,54.44
2019-03-16T13:12:22.424Z,54.41
2019-03-16T13:13:22.366Z,54.44
2019-03-16T13:14:22.446Z,53.03
2019-03-16T13:15:22.347Z,52.98
2019-03-16T13:16:22.293Z,55.00
2019-03-16T13:17:22.299Z,55.56
2019-03-16T13:18:22.264Z,56.76
2019-03-16T13:19:22.257Z,55.61
2019-03-16T13:20:22.272Z,55.20
2019-03-16T13:21:22.268Z,55.54
2019-03-16T13:22:22.225Z,55.54
2019-03-16T13:23:22.211Z,55.82
2019-03-16T13:24:22.202Z,55.41
2019-03-16T13:25:22.204Z,55.33
2019-03-16T13:26:22.182Z,56.38
2019-03-16T13:27:22.203Z,55.97
2019-03-16T13:28:22.154Z,56.63
2019-03-16T13:29:22.147Z,57.97
2019-03-16T13:30:22.140Z,58.58
2019-03-16T13:31:22.141Z,58.78
2019-03-16T13:32:22.120Z,58.58
2019-03-16T13:33:22.147Z,58.78
2019-03-16T13:34:22.095Z,58.89
2019-03-16T13:35:24.268Z,58.58
2019-03-16T13:36:22.073Z,58.34
2019-03-16T13:37:22.084Z,58.14
2019-03-16T13:38:22.049Z,56.86
2019-03-16T13:39:22.813Z,56.32
2019-03-16T13:40:22.030Z,55.26
2019-03-16T13:41:22.016Z,54.44
2019-03-16T13:42:22.056Z,54.44
2019-03-16T13:43:22.017Z,55.30
2019-03-16T13:44:21.981Z,56.99
2019-03-16T13:45:21.970Z,57.12